Ashby, Massachusetts
Current Conditions -  °F | °C
As of 4:52 PM on Friday 28 Nov 2014 (Local Time) from KFIT Reporting Station
Scattered Clouds Scattered Clouds  
Wind Chill: 28°   Ceiling: Unl
Heat Index: 28°   Visibility: 10mi
Dew Point: 18°   Wind: 3mph
Humidity: 66%   Direction: 300°WNW
Pressure: 30.12"   Gusts: NA
Location:  42.68°N, 71.82°W
Report Text: KFIT 282152Z AUTO 30003KT 10SM FEW048 SCT055 M02/M08 A3012 RMK AO2 SLP205 T10221078
Loading
Personal Weather Stations






























Interactive Weather Map New forecast layout! Learn more

10-Day Weather Forecast

Advertisements
Track Severe Weather on mobile